Time;durP1;ratioP1;P1;durP2;ratioP2;P2;SDS_P1;SDS_P2;PMS_P1;PMS_P2;Temp;Humidity;BMP_temperature;BMP_pressure;BME280_temperature;BME280_humidity;BME280_pressure;Samples;Min_cycle;Max_cycle;Signal;HPM_P1;HPM_P2
2021/12/15 00:00:40;;;;;;;100.87;48.33;;;;;;;-3.26;82.61;101536.17;1486014;87;21381;-80
2021/12/15 00:03:09;;;;;;;102.25;51.50;;;;;;;-3.27;82.30;101534.48;1480022;88;21360;-80
2021/12/15 00:05:37;;;;;;;102.72;51.45;;;;;;;-3.29;82.21;101541.87;1467039;88;22217;-80
2021/12/15 00:08:07;;;;;;;112.05;53.08;;;;;;;-3.32;81.90;101537.60;1475068;87;21426;-80
2021/12/15 00:10:35;;;;;;;102.55;55.78;;;;;;;-3.34;81.94;101535.48;1490316;88;21455;-81
2021/12/15 00:13:03;;;;;;;100.95;50.50;;;;;;;-3.33;81.86;101536.36;1473333;88;21344;-79
2021/12/15 00:15:30;;;;;;;103.53;50.90;;;;;;;-3.33;81.95;101544.97;1488802;87;21424;-79
2021/12/15 00:17:58;;;;;;;97.65;46.98;;;;;;;-3.38;81.73;101545.50;1468641;88;21434;-79
2021/12/15 00:20:27;;;;;;;112.57;51.92;;;;;;;-3.39;81.75;101542.52;1455527;89;21411;-79
2021/12/15 00:22:55;;;;;;;102.45;47.58;;;;;;;-3.40;81.45;101540.78;1442531;89;21338;-79
2021/12/15 00:25:26;;;;;;;107.55;48.17;;;;;;;-3.38;81.39;101539.03;1445877;89;21375;-78
2021/12/15 00:27:54;;;;;;;90.72;46.05;;;;;;;-3.39;81.38;101545.10;1453209;89;23817;-79
2021/12/15 00:30:23;;;;;;;90.30;40.95;;;;;;;-3.43;81.22;101541.70;1453375;89;22284;-80
2021/12/15 00:32:52;;;;;;;103.75;47.13;;;;;;;-3.45;81.28;101555.14;1442865;89;22417;-80
2021/12/15 00:35:20;;;;;;;90.17;43.05;;;;;;;-3.48;81.55;101551.31;1452940;89;21382;-80
2021/12/15 00:37:50;;;;;;;90.47;45.17;;;;;;;-3.45;81.50;101560.77;1457651;89;22913;-80
2021/12/15 00:40:21;;;;;;;90.35;40.10;;;;;;;-3.45;81.28;101554.29;1458075;89;21360;-80
2021/12/15 00:42:49;;;;;;;82.80;40.38;;;;;;;-3.44;81.39;101554.69;1449301;89;22292;-80
2021/12/15 00:45:17;;;;;;;87.12;40.78;;;;;;;-3.48;81.35;101554.32;1451797;89;21522;-80
2021/12/15 00:47:46;;;;;;;87.67;39.92;;;;;;;-3.51;81.16;101554.38;1457536;89;21324;-80
2021/12/15 00:50:17;;;;;;;94.90;43.58;;;;;;;-3.46;81.40;101562.92;1459244;89;21497;-81
2021/12/15 00:52:46;;;;;;;84.17;40.97;;;;;;;-3.46;81.34;101553.41;1456850;89;21396;-80
2021/12/15 00:55:18;;;;;;;92.37;41.28;;;;;;;-3.37;81.48;101563.17;1448318;89;21449;-79
2021/12/15 00:57:46;;;;;;;106.47;49.75;;;;;;;-3.32;81.31;101563.49;1453508;89;22505;-80
2021/12/15 01:00:18;;;;;;;113.88;48.70;;;;;;;-3.33;81.29;101553.19;1458712;89;22211;-80
2021/12/15 01:02:47;;;;;;;123.05;54.73;;;;;;;-3.35;81.45;101542.84;1456826;89;21433;-80
2021/12/15 01:05:17;;;;;;;118.65;52.20;;;;;;;-3.38;81.18;101544.20;1450452;89;21433;-80
2021/12/15 01:07:46;;;;;;;119.93;51.35;;;;;;;-3.39;81.26;101550.28;1441450;89;21390;-80
2021/12/15 01:10:20;;;;;;;109.80;51.20;;;;;;;-3.40;81.18;101544.67;1464149;89;21448;-80
2021/12/15 01:21:09;;;;;;;87.53;40.40;;;;;;;-3.31;81.46;101545.80;1450759;89;21516;-81
2021/12/15 01:23:37;;;;;;;100.78;45.90;;;;;;;-3.21;82.07;101542.11;1453516;89;23451;-81
2021/12/15 01:26:09;;;;;;;83.07;36.33;;;;;;;-3.14;81.91;101540.69;1451748;89;21367;-81
2021/12/15 01:28:36;;;;;;;87.82;37.38;;;;;;;-3.09;81.66;101541.45;1453424;89;21596;-80
2021/12/15 01:31:06;;;;;;;71.05;35.63;;;;;;;-3.04;81.30;101535.73;1445504;89;21603;-81
2021/12/15 01:33:36;;;;;;;67.35;34.53;;;;;;;-3.01;81.04;101537.80;1450809;89;21581;-81
2021/12/15 01:36:06;;;;;;;68.75;33.88;;;;;;;-2.96;81.01;101536.41;1447141;89;21448;-80
2021/12/15 01:38:37;;;;;;;74.80;35.65;;;;;;;-2.92;81.24;101539.33;1464379;88;22270;-79
2021/12/15 01:41:08;;;;;;;68.35;34.92;;;;;;;-2.87;81.60;101534.91;1471695;88;21382;-80
2021/12/15 01:49:07;;;;;;;68.45;36.03;;;;;;;-2.68;81.83;101530.58;1478112;87;22313;-81
2021/12/15 01:51:35;;;;;;;72.03;36.80;;;;;;;-2.60;81.83;101517.00;1486470;88;21632;-81
2021/12/15 01:54:03;;;;;;;90.80;45.17;;;;;;;-2.53;81.92;101520.71;1463232;87;21640;-80
2021/12/15 01:56:32;;;;;;;124.70;47.33;;;;;;;-2.42;82.08;101520.88;1452284;89;21497;-80
2021/12/15 01:59:00;;;;;;;102.35;47.10;;;;;;;-2.34;82.08;101521.09;1461912;89;21993;-82
2021/12/15 02:01:28;;;;;;;93.03;43.38;;;;;;;-2.23;82.18;101519.98;1458147;89;21605;-81
2021/12/15 02:03:56;;;;;;;89.80;44.08;;;;;;;-2.12;82.23;101521.85;1449485;89;21374;-81
2021/12/15 02:06:25;;;;;;;93.12;41.63;;;;;;;-2.06;82.02;101522.98;1455662;89;21271;-80
2021/12/15 02:08:53;;;;;;;91.02;42.78;;;;;;;-1.98;81.95;101518.91;1456255;89;22394;-82
2021/12/15 02:11:20;;;;;;;82.33;40.40;;;;;;;-1.91;82.10;101513.94;1455245;89;22269;-81
2021/12/15 02:13:48;;;;;;;81.12;41.05;;;;;;;-1.90;82.14;101511.32;1447770;89;22445;-82
2021/12/15 02:16:15;;;;;;;83.60;41.37;;;;;;;-1.87;82.60;101519.02;1445591;89;21500;-82
2021/12/15 02:18:45;;;;;;;96.97;45.73;;;;;;;-1.92;82.71;101519.58;1455511;89;21346;-81
2021/12/15 02:21:22;;;;;;;80.22;39.25;;;;;;;-1.94;82.29;101525.25;1455509;89;21523;-81
2021/12/15 02:23:55;;;;;;;82.12;43.20;;;;;;;-1.92;82.66;101527.36;1446155;89;21352;-82
2021/12/15 02:26:34;;;;;;;82.67;42.62;;;;;;;-1.87;82.67;101534.59;1450276;89;22269;-81
2021/12/15 02:29:05;;;;;;;83.20;38.20;;;;;;;-1.79;82.81;101538.25;1452191;89;21390;-81
2021/12/15 02:31:57;;;;;;;92.75;42.27;;;;;;;-1.73;82.85;101541.13;1457832;89;21450;-80
2021/12/15 02:37:17;;;;;;;83.20;41.40;;;;;;;-1.66;82.96;101529.70;1452855;89;20733;-81
2021/12/15 02:39:53;;;;;;;79.47;40.17;;;;;;;-1.60;82.83;101532.13;1463736;89;21397;-81
2021/12/15 02:42:24;;;;;;;80.67;42.78;;;;;;;-1.52;82.86;101535.36;1454599;89;21412;-81
2021/12/15 02:44:51;;;;;;;70.80;36.25;;;;;;;-1.42;83.05;101536.78;1461902;89;21418;-81
2021/12/15 02:47:24;;;;;;;69.85;36.98;;;;;;;-1.38;82.83;101530.62;1451686;89;21479;-81
2021/12/15 02:49:56;;;;;;;79.03;40.20;;;;;;;-1.30;82.78;101534.73;1451692;89;21301;-81
2021/12/15 02:52:25;;;;;;;70.87;36.70;;;;;;;-1.27;82.54;101535.48;1467655;89;22380;-82
2021/12/15 02:54:53;;;;;;;76.45;38.00;;;;;;;-1.22;82.43;101532.30;1452389;89;21603;-82
2021/12/15 02:57:20;;;;;;;72.62;38.80;;;;;;;-1.18;82.42;101536.95;1461935;89;21486;-82
2021/12/15 03:05:23;;;;;;;70.93;37.70;;;;;;;-1.04;82.28;101533.95;1448629;89;21537;-82
2021/12/15 03:07:55;;;;;;;77.72;38.28;;;;;;;-1.07;82.28;101540.54;1462759;88;22364;-82
2021/12/15 03:15:52;;;;;;;71.25;36.10;;;;;;;-1.17;82.54;101538.67;1476436;87;21455;-82
2021/12/15 03:18:23;;;;;;;73.78;38.15;;;;;;;-1.18;82.86;101536.95;1493827;87;22505;-82
2021/12/15 03:21:02;;;;;;;;;;;;;;;-1.16;83.08;101531.27;1496476;87;21441;-83
2021/12/15 03:23:47;;;;;;;71.62;36.63;;;;;;;-1.15;83.23;101531.24;1496410;87;20431;-82
2021/12/15 03:26:12;;;;;;;77.42;39.13;;;;;;;-1.12;82.97;101543.72;1470461;87;21411;-82
2021/12/15 03:35:06;;;;;;;74.17;39.05;;;;;;;-1.21;82.37;101536.62;1485786;87;21366;-81
2021/12/15 03:39:32;;;;;;;68.85;36.15;;;;;;;-1.29;82.60;101548.14;1479627;88;21487;-82
2021/12/15 03:42:06;;;;;;;76.60;38.95;;;;;;;-1.33;82.56;101551.25;1477664;88;21359;-82
2021/12/15 03:44:36;;;;;;;79.55;41.08;;;;;;;-1.36;83.00;101546.14;1488434;88;21587;-82
2021/12/15 03:47:08;;;;;;;70.42;36.80;;;;;;;-1.35;82.87;101547.86;1475103;88;22578;-81
2021/12/15 03:49:36;;;;;;;69.42;35.90;;;;;;;-1.36;82.62;101549.59;1474308;87;21381;-81
2021/12/15 03:52:07;;;;;;;71.07;36.13;;;;;;;-1.37;82.31;101541.41;1479030;88;21417;-81
2021/12/15 03:54:34;;;;;;;71.37;37.23;;;;;;;-1.41;82.28;101542.40;1474232;88;22357;-82
2021/12/15 03:57:02;;;;;;;83.20;40.10;;;;;;;-1.40;82.22;101539.34;1470359;88;21533;-81
2021/12/15 03:59:32;;;;;;;76.80;40.15;;;;;;;-1.40;82.32;101530.26;1479662;88;22452;-82
2021/12/15 04:01:58;;;;;;;83.72;39.85;;;;;;;-1.38;82.34;101537.11;1474919;87;21544;-81
2021/12/15 04:04:26;;;;;;;79.40;40.43;;;;;;;-1.44;82.15;101538.59;1481085;87;22563;-80
2021/12/15 04:06:53;;;;;;;77.97;39.48;;;;;;;-1.48;82.25;101531.77;1499955;87;21418;-80
2021/12/15 04:09:21;;;;;;;63.90;35.92;;;;;;;-1.50;82.60;101536.14;1486662;88;21418;-80
2021/12/15 04:11:48;;;;;;;73.62;35.60;;;;;;;-1.58;82.74;101532.94;1476471;88;21382;-80
2021/12/15 04:14:21;;;;;;;77.92;40.05;;;;;;;-1.64;82.94;101536.98;1459515;88;21521;-81
2021/12/15 04:17:03;;;;;;;79.07;38.23;;;;;;;-1.67;82.53;101538.36;1481197;88;21528;-80
2021/12/15 04:19:30;;;;;;;;;;;;;;;-1.70;82.37;101544.48;1480510;87;22545;-81
2021/12/15 04:22:00;;;;;;;83.30;40.75;;;;;;;-1.72;82.34;101548.05;1496658;88;20298;-81
2021/12/15 04:24:28;;;;;;;77.50;38.90;;;;;;;-1.74;82.21;101547.22;1483348;87;21520;-80
2021/12/15 04:26:59;;;;;;;92.57;44.13;;;;;;;-1.78;82.17;101552.08;1471187;88;21352;-81
2021/12/15 04:29:29;;;;;;;88.00;40.95;;;;;;;-1.78;82.37;101558.56;1452563;89;21428;-81
2021/12/15 04:32:05;;;;;;;81.72;42.05;;;;;;;-1.75;82.49;101567.59;1452190;89;21337;-80
2021/12/15 04:34:32;;;;;;;79.47;39.00;;;;;;;-1.80;83.10;101567.70;1453256;89;21625;-80
2021/12/15 04:36:59;;;;;;;81.22;40.25;;;;;;;-1.85;83.68;101572.16;1473419;88;21566;-80
2021/12/15 04:39:28;;;;;;;75.57;38.70;;;;;;;-1.88;84.23;101573.09;1466344;88;21656;-79
2021/12/15 04:41:58;;;;;;;73.35;38.20;;;;;;;-1.88;83.80;101576.98;1472924;88;21478;-80
2021/12/15 04:44:30;;;;;;;101.85;49.83;;;;;;;-1.83;84.02;101576.88;1454077;87;21404;-80
2021/12/15 04:47:08;;;;;;;78.57;40.10;;;;;;;-1.79;84.24;101580.23;1457713;89;21382;-80
2021/12/15 04:49:50;;;;;;;73.00;38.30;;;;;;;-1.79;84.21;101569.84;1466688;88;21470;-80
2021/12/15 04:52:22;;;;;;;109.37;55.50;;;;;;;-1.79;84.15;101560.77;1467342;89;22484;-79
2021/12/15 04:54:50;;;;;;;180.50;90.50;;;;;;;-1.73;84.08;101564.48;1448277;89;21433;-79
2021/12/15 04:57:19;;;;;;;83.27;43.73;;;;;;;-1.66;84.07;101579.02;1455295;89;21441;-80
2021/12/15 04:59:47;;;;;;;82.30;42.03;;;;;;;-1.61;83.98;101583.20;1460808;89;21471;-80
2021/12/15 05:02:17;;;;;;;87.33;42.40;;;;;;;-1.58;83.86;101592.65;1461003;88;22691;-80
2021/12/15 05:04:46;;;;;;;92.42;46.23;;;;;;;-1.54;84.01;101594.26;1467839;89;21463;-80
2021/12/15 05:07:13;;;;;;;95.35;43.13;;;;;;;-1.50;83.68;101595.86;1448794;89;21494;-80
2021/12/15 05:09:41;;;;;;;85.32;41.63;;;;;;;-1.46;83.64;101599.25;1455187;89;21441;-80
2021/12/15 05:12:09;;;;;;;85.32;42.75;;;;;;;-1.43;83.53;101598.72;1449238;89;21404;-80
2021/12/15 05:14:36;;;;;;;88.97;45.80;;;;;;;-1.39;83.48;101599.02;1455739;89;21514;-81
2021/12/15 05:17:04;;;;;;;90.70;47.62;;;;;;;-1.33;83.35;101601.05;1447460;89;21389;-80
2021/12/15 05:19:31;;;;;;;98.65;52.33;;;;;;;-1.28;83.33;101601.78;1455705;89;21418;-82
2021/12/15 05:21:59;;;;;;;98.00;50.52;;;;;;;-1.23;83.13;101602.51;1458578;89;21390;-81
2021/12/15 05:27:05;;;;;;;93.47;48.30;;;;;;;-1.23;82.86;101606.41;1448154;89;22308;-81
2021/12/15 05:29:33;;;;;;;94.58;47.27;;;;;;;-1.20;82.80;101601.12;1451923;89;21529;-81
2021/12/15 05:32:01;;;;;;;96.67;47.35;;;;;;;-1.21;82.69;101599.39;1448629;89;21412;-81
2021/12/15 05:34:28;;;;;;;91.17;46.75;;;;;;;-1.21;82.75;101600.69;1446417;89;22239;-81
2021/12/15 05:36:56;;;;;;;89.15;45.40;;;;;;;-1.22;83.00;101602.90;1447812;89;21412;-82
2021/12/15 05:39:23;;;;;;;90.42;47.93;;;;;;;-1.19;83.02;101593.72;1454863;89;21359;-80
2021/12/15 05:41:52;;;;;;;83.97;44.87;;;;;;;-1.18;83.18;101601.48;1448920;89;22386;-81
2021/12/15 05:44:20;;;;;;;71.42;40.40;;;;;;;-1.18;83.07;101596.70;1458994;89;23154;-82
2021/12/15 05:46:49;;;;;;;74.22;39.75;;;;;;;-1.15;83.12;101594.89;1454330;89;21389;-82
2021/12/15 05:49:17;;;;;;;78.52;41.77;;;;;;;-1.10;83.04;101596.50;1461697;89;21477;-81
2021/12/15 05:51:45;;;;;;;104.27;53.17;;;;;;;-1.07;82.73;101596.41;1461598;89;21346;-81
2021/12/15 05:54:12;;;;;;;125.38;57.88;;;;;;;-1.17;82.86;101603.17;1460258;89;21979;-81
2021/12/15 05:56:41;;;;;;;122.58;64.97;;;;;;;-1.24;82.53;101604.67;1458637;89;21374;-81
2021/12/15 05:59:09;;;;;;;122.70;59.58;;;;;;;-1.25;82.52;101609.48;1460509;89;22615;-81
2021/12/15 06:01:37;;;;;;;179.63;83.85;;;;;;;-1.30;83.33;101610.05;1455716;89;21566;-82
2021/12/15 06:04:06;;;;;;;137.28;70.30;;;;;;;-1.33;83.68;101615.33;1450643;89;21346;-82
2021/12/15 06:06:34;;;;;;;137.90;58.92;;;;;;;-1.32;83.78;101617.02;1458176;89;21331;-83
2021/12/15 06:09:05;;;;;;;87.55;43.38;;;;;;;-1.35;83.77;101624.48;1452146;89;21419;-83
2021/12/15 06:11:34;;;;;;;86.40;41.63;;;;;;;-1.40;83.48;101624.59;1452463;89;22247;-83
2021/12/15 06:14:01;;;;;;;143.85;63.87;;;;;;;-1.44;83.46;101626.01;1452981;89;21478;-82
2021/12/15 06:16:29;;;;;;;74.03;40.17;;;;;;;-1.46;83.67;101624.77;1448368;89;21920;-83
2021/12/15 06:18:57;;;;;;;80.77;39.90;;;;;;;-1.50;83.62;101618.39;1454278;89;21426;-84
2021/12/15 06:21:24;;;;;;;88.35;42.90;;;;;;;-1.54;84.18;101625.41;1452844;89;21389;-83
2021/12/15 06:23:52;;;;;;;78.02;41.10;;;;;;;-1.50;84.03;101630.92;1453882;89;21397;-82
2021/12/15 06:26:20;;;;;;;86.78;43.98;;;;;;;-1.43;84.17;101634.22;1455864;89;21530;-82
2021/12/15 06:28:48;;;;;;;134.18;64.53;;;;;;;-1.37;84.14;101631.45;1446183;89;22428;-82
2021/12/15 06:31:17;;;;;;;231.70;103.70;;;;;;;-1.30;84.16;101634.27;1445390;89;21530;-82
2021/12/15 06:33:46;;;;;;;157.27;71.85;;;;;;;-1.22;84.35;101637.97;1459385;89;22339;-82
2021/12/15 06:36:20;;;;;;;102.70;50.30;;;;;;;-1.20;83.98;101647.42;1447597;89;22445;-82
2021/12/15 06:38:47;;;;;;;106.35;56.48;;;;;;;-1.18;83.68;101648.66;1444129;88;21516;-82
2021/12/15 06:41:14;;;;;;;;;;;;;;;-1.14;83.66;101654.20;1442218;90;21398;-82
2021/12/15 06:43:47;;;;;;;214.90;103.55;;;;;;;-1.10;83.69;101649.31;1442810;90;20256;-82
2021/12/15 06:59:47;;;;;;;114.97;57.10;;;;;;;-0.95;82.93;101660.59;1443535;90;21523;-81
2021/12/15 07:02:16;;;;;;;96.13;49.83;;;;;;;-0.95;82.87;101672.28;1450097;90;21464;-82
2021/12/15 07:04:43;;;;;;;92.20;49.27;;;;;;;-0.95;82.84;101682.67;1426096;90;22129;-82
2021/12/15 07:07:10;;;;;;;329.27;158.82;;;;;;;-0.88;82.94;101687.70;1433474;90;22293;-82
2021/12/15 07:09:37;;;;;;;105.07;52.43;;;;;;;-0.81;83.02;101682.26;1442986;90;21390;-83
2021/12/15 07:12:06;;;;;;;102.30;53.08;;;;;;;-0.70;83.29;101687.16;1449150;90;21591;-81
2021/12/15 07:14:33;;;;;;;103.77;56.47;;;;;;;-0.61;83.31;101681.68;1457726;90;22432;-81
2021/12/15 07:17:08;;;;;;;108.23;58.03;;;;;;;-0.56;82.65;101683.70;1471584;88;21912;-81
2021/12/15 07:19:34;;;;;;;181.30;91.00;;;;;;;-0.54;81.84;101681.07;1448287;88;21751;-81
2021/12/15 07:22:29;;;;;;;111.97;57.70;;;;;;;-0.47;81.93;101683.88;1451871;88;21562;-81
2021/12/15 07:24:44;;;;;;;123.33;57.03;;;;;;;-0.41;82.22;101688.89;1441271;88;21617;-81
2021/12/15 07:27:11;;;;;;;134.53;61.73;;;;;;;-0.34;81.95;101687.81;1436363;90;21714;-81
2021/12/15 07:29:38;;;;;;;113.07;60.13;;;;;;;-0.31;81.43;101682.97;1436452;90;21665;-78
2021/12/15 07:32:06;;;;;;;109.23;54.30;;;;;;;-0.23;81.30;101688.80;1451302;90;22027;-79
2021/12/15 07:34:33;;;;;;;99.50;51.10;;;;;;;-0.10;81.58;101689.25;1437121;90;21589;-79
2021/12/15 07:37:01;;;;;;;89.13;45.60;;;;;;;0.01;80.92;101681.11;1442446;89;22535;-79
2021/12/15 07:39:28;;;;;;;75.93;42.53;;;;;;;0.04;79.45;101688.81;1439031;90;21548;-79
2021/12/15 07:42:05;;;;;;;78.33;43.87;;;;;;;0.04;78.75;101692.72;1453299;90;21537;-78
2021/12/15 07:44:24;;;;;;;81.33;43.57;;;;;;;-0.04;77.27;101704.21;1436372;90;21684;-83
2021/12/15 07:46:53;;;;;;;163.13;77.13;;;;;;;0.04;78.54;101696.62;1452560;90;22570;-82
2021/12/15 07:49:23;;;;;;;69.80;35.17;;;;;;;0.14;79.09;101696.71;1443051;90;22518;-84
2021/12/15 07:52:00;;;;;;;92.83;45.03;;;;;;;0.17;77.87;101694.01;1431676;90;21649;-83
2021/12/15 07:54:20;;;;;;;79.67;39.33;;;;;;;0.21;78.17;101687.81;1452931;88;22463;-83
2021/12/15 07:56:48;;;;;;;67.97;33.93;;;;;;;0.26;78.35;101685.92;1440787;90;21539;-84
2021/12/15 07:59:15;;;;;;;73.53;39.27;;;;;;;0.23;77.29;101693.80;1442484;90;21600;-84
2021/12/15 08:01:42;;;;;;;96.60;46.03;;;;;;;0.36;78.10;101687.75;1431165;90;21655;-84
2021/12/15 08:04:10;;;;;;;112.40;55.83;;;;;;;0.40;77.86;101697.16;1453767;90;22442;-84
2021/12/15 08:06:37;;;;;;;84.40;41.30;;;;;;;0.44;78.35;101703.52;1443371;90;21585;-84
2021/12/15 08:09:05;;;;;;;81.93;42.93;;;;;;;0.53;77.96;101709.33;1450494;90;21482;-85
2021/12/15 08:11:33;;;;;;;83.30;44.13;;;;;;;0.60;78.32;101710.35;1448073;90;21635;-84
2021/12/15 08:14:01;;;;;;;236.87;94.77;;;;;;;0.73;78.56;101709.50;1447327;90;21796;-84
2021/12/15 08:16:28;;;;;;;192.80;82.33;;;;;;;0.86;78.46;101702.96;1456131;90;22491;-85
2021/12/15 08:18:56;;;;;;;510.13;222.77;;;;;;;0.99;78.40;101710.34;1441162;90;21605;-85
2021/12/15 08:21:23;;;;;;;173.70;74.83;;;;;;;1.10;78.67;101714.72;1430357;90;22126;-85
2021/12/15 08:23:51;;;;;;;82.73;45.70;;;;;;;1.23;78.56;101710.73;1439730;90;21525;-84
2021/12/15 08:26:18;;;;;;;108.87;53.93;;;;;;;1.26;77.92;101717.14;1445539;90;21600;-84
2021/12/15 08:28:45;;;;;;;116.00;58.00;;;;;;;1.33;77.74;101721.70;1427053;90;21591;-84
2021/12/15 08:31:13;;;;;;;81.20;40.33;;;;;;;1.34;76.88;101712.50;1457277;90;22627;-84
2021/12/15 08:33:40;;;;;;;125.33;58.27;;;;;;;1.27;76.09;101714.11;1449695;90;21697;-84
2021/12/15 08:36:12;;;;;;;88.27;42.77;;;;;;;1.32;76.87;101721.28;1442507;90;21554;-84
2021/12/15 08:38:43;;;;;;;82.83;42.37;;;;;;;1.40;76.64;101722.31;1437689;89;21726;-85
2021/12/15 08:41:13;;;;;;;;;;;;;;;1.28;74.82;101726.23;1440087;91;21733;-86
2021/12/15 08:43:42;;;;;;;75.90;39.63;;;;;;;1.22;75.41;101727.77;1421194;91;20795;-85
2021/12/15 08:46:32;;;;;;;83.90;40.03;;;;;;;1.20;75.91;101725.20;1430622;90;21648;-85
2021/12/15 08:49:01;;;;;;;88.73;44.07;;;;;;;1.13;75.19;101721.97;1424830;90;22584;-85
2021/12/15 08:51:30;;;;;;;104.00;52.83;;;;;;;1.29;76.34;101727.92;1429148;90;22592;-85
2021/12/15 08:54:01;;;;;;;230.07;95.83;;;;;;;1.47;76.71;101729.02;1355354;90;21624;-85
2021/12/15 08:56:30;;;;;;;151.70;65.47;;;;;;;1.68;76.42;101721.67;1422245;91;21902;-84
2021/12/15 08:58:59;;;;;;;80.03;42.47;;;;;;;1.83;75.04;101728.52;1448505;91;21820;-85
2021/12/15 09:01:26;;;;;;;124.73;58.47;;;;;;;1.89;74.26;101724.35;1423704;91;21912;-85
2021/12/15 09:03:54;;;;;;;68.53;37.10;;;;;;;2.05;75.22;101724.15;1435143;90;21784;-85
2021/12/15 09:06:22;;;;;;;82.20;45.80;;;;;;;2.23;75.16;101728.63;1429063;91;22926;-85
2021/12/15 09:08:52;;;;;;;114.03;59.20;;;;;;;2.38;73.59;101734.98;1431485;90;22234;-83
2021/12/15 09:11:23;;;;;;;72.73;40.67;;;;;;;2.46;73.50;101734.21;1431466;91;21472;-84
2021/12/15 09:13:52;;;;;;;;;;;;;;;2.47;73.10;101729.83;1427242;90;23110;-84
2021/12/15 09:16:21;;;;;;;64.53;37.80;;;;;;;2.44;73.05;101726.03;1425683;91;20388;-84
2021/12/15 09:18:50;;;;;;;89.50;44.60;;;;;;;2.44;73.05;101723.71;1425457;90;22317;-84
2021/12/15 09:21:22;;;;;;;68.87;37.57;;;;;;;2.48;72.84;101723.71;1425946;91;23279;-84
2021/12/15 09:23:49;;;;;;;;;;;;;;;2.52;72.41;101717.42;1434677;90;22083;-84
2021/12/15 09:26:17;;;;;;;62.83;34.23;;;;;;;2.58;72.79;101714.55;1432766;91;20391;-84
2021/12/15 09:28:44;;;;;;;51.87;29.93;;;;;;;2.57;71.17;101712.86;1426266;90;22078;-84
2021/12/15 09:31:11;;;;;;;67.10;34.83;;;;;;;2.50;70.86;101717.94;1426975;90;23062;-84
2021/12/15 09:33:41;;;;;;;96.93;46.17;;;;;;;2.51;71.96;101717.05;1430958;90;22604;-84
2021/12/15 09:36:12;;;;;;;56.03;30.73;;;;;;;2.49;71.60;101716.25;1428627;91;23066;-84
2021/12/15 09:38:42;;;;;;;47.97;29.60;;;;;;;2.48;71.20;101721.09;1439923;89;22219;-84
2021/12/15 09:41:13;;;;;;;143.57;65.63;;;;;;;2.45;71.72;101702.94;1463561;89;22153;-84
2021/12/15 09:43:42;;;;;;;55.17;29.33;;;;;;;2.68;72.57;101716.34;1449826;89;23195;-84
2021/12/15 09:46:25;;;;;;;55.43;31.27;;;;;;;2.68;72.57;101716.34;1459840;89;22169;-84
2021/12/15 10:05:15;;;;;;;61.20;31.83;;;;;;;2.86;72.02;101709.45;1459611;89;22113;-84
2021/12/15 10:19:36;;;;;;;45.43;25.30;;;;;;;3.50;70.54;101708.34;1428499;91;22352;-84
2021/12/15 10:22:36;;;;;;;44.53;25.13;;;;;;;3.65;70.45;101706.77;1430935;90;23172;-84
2021/12/15 10:25:13;;;;;;;43.80;24.83;;;;;;;3.73;70.47;101709.88;1427814;91;21561;-84
2021/12/15 10:28:10;;;;;;;38.70;23.73;;;;;;;3.70;69.05;101699.33;1430428;91;22471;-84
2021/12/15 10:30:48;;;;;;;45.53;24.03;;;;;;;3.66;69.46;101699.33;1461186;88;21442;-83
2021/12/15 10:33:33;;;;;;;44.33;25.93;;;;;;;3.43;68.25;101716.09;1448792;88;23024;-84
2021/12/15 10:36:14;;;;;;;51.77;27.37;;;;;;;3.47;69.22;101710.48;1469014;88;21521;-84
2021/12/15 10:38:51;;;;;;;38.97;21.90;;;;;;;3.50;69.86;101748.44;1481575;87;21516;-83
2021/12/15 10:41:27;;;;;;;41.73;24.87;;;;;;;3.28;69.60;101711.07;1470628;88;22591;-84
2021/12/15 10:44:08;;;;;;;44.00;24.37;;;;;;;3.28;69.95;101715.00;1446785;90;22410;-85
2021/12/15 10:46:52;;;;;;;43.80;25.20;;;;;;;3.35;70.71;101708.58;1447486;88;22245;-84
2021/12/15 10:49:24;;;;;;;154.33;71.97;;;;;;;3.33;70.54;101708.64;1460825;88;21485;-83
2021/12/15 10:52:02;;;;;;;56.07;31.20;;;;;;;3.28;70.21;101704.53;1468723;88;22556;-86
2021/12/15 10:54:44;;;;;;;52.90;32.07;;;;;;;3.14;71.01;101696.86;1466929;88;21404;-84
2021/12/15 10:57:30;;;;;;;52.58;30.65;;;;;;;3.14;71.01;101696.86;1478729;88;21546;-83
2021/12/15 10:59:57;;;;;;;46.13;27.97;;;;;;;3.42;71.84;101692.97;1521582;90;21219;-82
2021/12/15 11:02:30;;;;;;;46.13;28.03;;;;;;;3.53;71.50;101685.48;1421600;91;21344;-84
2021/12/15 11:05:11;;;;;;;43.83;27.43;;;;;;;3.53;71.50;101685.48;1448841;88;21470;-84
2021/12/15 11:07:45;;;;;;;42.40;26.50;;;;;;;3.60;70.89;101684.28;1459304;88;22512;-84
2021/12/15 11:10:26;;;;;;;47.90;26.87;;;;;;;3.60;71.46;101671.20;1470539;88;21632;-83
2021/12/15 11:12:57;;;;;;;39.17;23.30;;;;;;;3.60;71.46;101671.20;1449877;88;22903;-84
2021/12/15 11:15:30;;;;;;;44.73;26.77;;;;;;;3.57;71.39;101690.13;1467041;89;22284;-83
2021/12/15 11:18:16;;;;;;;41.63;22.37;;;;;;;3.64;71.60;101681.52;1373504;91;21533;-83
2021/12/15 11:20:51;;;;;;;35.17;22.53;;;;;;;3.70;71.10;101689.08;1529165;89;21361;-84
2021/12/15 11:23:22;;;;;;;39.17;22.30;;;;;;;3.79;71.33;101686.86;1550398;88;21382;-83
2021/12/15 11:25:54;;;;;;;34.35;21.30;;;;;;;3.90;71.23;101686.36;1554184;88;21345;-83
2021/12/15 11:28:30;;;;;;;40.17;21.57;;;;;;;3.92;71.06;101685.83;1444987;88;21390;-83
2021/12/15 11:31:11;;;;;;;44.23;23.30;;;;;;;3.90;70.60;101689.44;1447378;88;21301;-84
2021/12/15 11:33:49;;;;;;;81.67;40.23;;;;;;;3.94;70.59;101686.61;1554711;88;21265;-83
2021/12/15 11:36:44;;;;;;;53.27;30.80;;;;;;;4.04;70.94;101679.14;1554657;87;21221;-83
2021/12/15 11:39:16;;;;;;;74.70;40.67;;;;;;;4.14;70.83;101671.67;1485182;87;21434;-84
2021/12/15 11:41:47;;;;;;;54.17;29.37;;;;;;;4.19;70.89;101680.16;1388922;88;22373;-84
2021/12/15 11:44:19;;;;;;;51.63;27.67;;;;;;;4.23;70.87;101674.70;1477239;88;21455;-84
2021/12/15 11:46:55;;;;;;;165.27;78.47;;;;;;;4.15;70.60;101672.92;1434600;90;21407;-84
2021/12/15 11:49:30;;;;;;;65.50;32.50;;;;;;;4.02;70.86;101671.34;1428286;91;21414;-83
2021/12/15 11:52:05;;;;;;;41.90;25.83;;;;;;;3.96;71.12;101671.65;1454167;88;21455;-84
2021/12/15 11:54:44;;;;;;;45.47;25.30;;;;;;;4.03;71.65;101662.59;1547053;88;21190;-84
2021/12/15 11:57:24;;;;;;;189.80;86.63;;;;;;;4.17;71.96;101654.05;1537984;88;21197;-84
2021/12/15 11:59:56;;;;;;;146.73;72.20;;;;;;;4.24;71.76;101650.65;1472657;87;21292;-83
2021/12/15 12:02:39;;;;;;;94.33;48.73;;;;;;;4.31;71.33;101654.64;1385881;87;21456;-82
2021/12/15 12:05:47;;;;;;;160.00;79.07;;;;;;;4.33;71.11;101656.73;1473106;89;21426;-84
2021/12/15 12:08:14;;;;;;;69.90;33.47;;;;;;;4.34;71.37;101653.64;1429466;89;21435;-83
2021/12/15 12:10:48;;;;;;;56.10;29.77;;;;;;;4.38;71.14;101653.89;1440750;91;21620;-84
2021/12/15 12:13:26;;;;;;;38.77;21.97;;;;;;;4.39;71.47;101654.27;1438288;91;21561;-84
2021/12/15 12:16:04;;;;;;;40.80;21.00;;;;;;;4.43;71.68;101651.86;1459111;88;21559;-84
2021/12/15 12:18:36;;;;;;;38.43;21.60;;;;;;;4.45;71.65;101657.88;1446609;88;22387;-84
2021/12/15 12:21:08;;;;;;;34.20;20.47;;;;;;;4.49;71.62;101648.95;1536044;88;21308;-85
2021/12/15 12:23:46;;;;;;;51.83;26.33;;;;;;;4.50;71.56;101647.55;1396293;89;21319;-85
2021/12/15 12:26:19;;;;;;;46.70;26.30;;;;;;;4.55;71.40;101645.17;1365127;89;21465;-85
2021/12/15 12:28:47;;;;;;;52.67;30.23;;;;;;;4.62;71.60;101647.84;1489349;89;21522;-85
2021/12/15 12:31:20;;;;;;;43.53;27.83;;;;;;;4.65;71.30;101645.06;1428286;91;21359;-84
2021/12/15 12:33:49;;;;;;;47.77;28.20;;;;;;;4.60;70.63;101638.73;1434576;90;21499;-83
2021/12/15 12:36:27;;;;;;;46.73;26.37;;;;;;;4.56;70.52;101638.98;1387478;88;21264;-84
2021/12/15 12:38:59;;;;;;;42.43;25.30;;;;;;;4.52;70.83;101632.59;1427741;87;21360;-82
2021/12/15 12:41:31;;;;;;;44.90;24.87;;;;;;;4.55;70.88;101638.61;1449504;90;21287;-83
2021/12/15 12:44:02;;;;;;;40.93;23.40;;;;;;;4.56;70.94;101638.98;1525925;89;21281;-83
2021/12/15 12:46:39;;;;;;;36.47;22.73;;;;;;;4.53;70.67;101638.67;1526146;89;22730;-83
2021/12/15 12:49:30;;;;;;;45.30;22.93;;;;;;;4.42;70.58;101637.91;1406076;89;22339;-84